createdAt,value
2024-02-05T00:01:27.515Z,12.88
2024-02-05T00:06:30.279Z,12.93
2024-02-05T00:11:32.985Z,12.20
2024-02-05T00:16:35.600Z,13.75
2024-02-05T00:21:38.257Z,15.77
2024-02-05T00:26:40.923Z,15.27
2024-02-05T00:31:43.679Z,15.43
2024-02-05T00:36:46.332Z,13.43
2024-02-05T00:41:49.116Z,14.82
2024-02-05T00:46:51.760Z,10.73
2024-02-05T00:51:54.494Z,14.15
2024-02-05T00:56:57.115Z,13.95
2024-02-05T01:01:59.759Z,13.13
2024-02-05T01:07:02.743Z,13.27
2024-02-05T01:12:06.602Z,15.18
2024-02-05T01:17:10.264Z,12.90
2024-02-05T01:22:13.052Z,16.02
2024-02-05T01:27:15.916Z,12.93
2024-02-05T01:32:18.604Z,16.48
2024-02-05T01:37:21.408Z,20.48
2024-02-05T01:42:26.182Z,10.55
2024-02-05T01:47:28.921Z,11.38
2024-02-05T01:52:33.299Z,17.10
2024-02-05T01:57:36.532Z,15.20
2024-02-05T02:02:43.994Z,10.60
2024-02-05T02:07:47.617Z,15.80
2024-02-05T02:12:50.433Z,11.23
2024-02-05T02:17:57.749Z,11.60
2024-02-05T02:23:07.599Z,18.38
2024-02-05T02:28:10.525Z,18.17
2024-02-05T02:33:23.329Z,17.80
2024-02-05T02:38:44.885Z,14.60
2024-02-05T02:44:00.443Z,22.52
2024-02-05T02:49:03.548Z,16.13
2024-02-05T02:54:06.268Z,20.67
2024-02-05T02:59:11.007Z,14.32
2024-02-05T03:04:13.652Z,15.60
2024-02-05T03:09:16.335Z,15.50
2024-02-05T03:14:19.247Z,13.90
2024-02-05T03:19:22.241Z,20.65
2024-02-05T03:24:25.120Z,14.13
2024-02-05T03:29:27.759Z,15.30
2024-02-05T03:34:30.552Z,17.50
2024-02-05T03:39:33.401Z,12.48
2024-02-05T03:44:36.089Z,16.27
2024-02-05T03:49:38.775Z,14.82
2024-02-05T03:54:43.116Z,17.35
2024-02-05T03:59:45.814Z,16.40
2024-02-05T04:04:48.460Z,17.42
2024-02-05T04:09:51.394Z,17.88
2024-02-05T04:14:54.272Z,13.48
2024-02-05T04:19:56.922Z,18.45
2024-02-05T04:24:59.634Z,16.42
2024-02-05T04:30:03.937Z,17.13
2024-02-05T04:35:09.129Z,14.82
2024-02-05T04:40:12.752Z,14.60
2024-02-05T04:45:15.999Z,14.32
2024-02-05T04:50:19.212Z,13.88
2024-02-05T04:55:22.647Z,14.38
2024-02-05T05:00:25.973Z,14.15
2024-02-05T05:05:28.988Z,6.97
2024-02-05T05:10:31.930Z,18.40
2024-02-05T05:15:37.620Z,18.20
2024-02-05T05:20:44.125Z,19.38
2024-02-05T05:25:46.990Z,21.55
2024-02-05T05:30:49.655Z,13.73
2024-02-05T05:35:52.548Z,14.05
2024-02-05T05:40:55.521Z,15.65
2024-02-05T05:45:59.100Z,13.18
2024-02-05T05:51:01.865Z,12.82
2024-02-05T05:56:04.767Z,19.05
2024-02-05T06:01:07.832Z,13.90
2024-02-05T06:06:10.682Z,15.55
2024-02-05T06:11:13.720Z,15.30
2024-02-05T06:16:17.862Z,14.85
2024-02-05T06:21:20.602Z,15.50
2024-02-05T06:26:23.489Z,11.85
2024-02-05T06:31:26.480Z,11.75
2024-02-05T06:36:29.244Z,13.15
2024-02-05T06:41:32.792Z,13.07
2024-02-05T06:46:35.384Z,12.90
2024-02-05T06:51:38.188Z,14.05
2024-02-05T06:56:41.080Z,11.10
2024-02-05T07:01:43.779Z,12.23
2024-02-05T07:06:46.939Z,8.65
2024-02-05T07:11:49.943Z,11.90
2024-02-05T07:16:52.757Z,11.50
2024-02-05T07:21:56.547Z,11.43
2024-02-05T07:26:59.931Z,10.18
2024-02-05T07:32:02.574Z,7.00
2024-02-05T07:37:05.654Z,12.25
2024-02-05T07:42:09.142Z,11.05
2024-02-05T07:47:11.801Z,10.65
2024-02-05T07:52:16.123Z,11.43
2024-02-05T07:57:20.401Z,15.38
2024-02-05T08:02:24.391Z,12.98
2024-02-05T08:07:27.264Z,12.18
2024-02-05T08:12:30.043Z,11.68
2024-02-05T08:17:33.158Z,15.63
2024-02-05T08:22:35.963Z,12.00
2024-02-05T08:27:38.685Z,9.05
2024-02-05T08:32:41.828Z,10.77
2024-02-05T08:37:44.650Z,12.95
2024-02-05T08:42:47.443Z,11.93
2024-02-05T08:47:50.202Z,9.20
2024-02-05T08:52:52.794Z,11.48
2024-02-05T08:57:55.595Z,12.98
2024-02-05T09:02:58.328Z,10.40
2024-02-05T09:08:01.447Z,11.00
2024-02-05T09:13:04.339Z,13.35
2024-02-05T09:18:07.816Z,11.35
2024-02-05T09:23:10.776Z,10.05
2024-02-05T09:28:13.671Z,11.30
2024-02-05T09:33:16.500Z,8.27
2024-02-05T09:38:19.338Z,12.88
2024-02-05T09:43:24.027Z,11.88
2024-02-05T09:48:33.685Z,10.20
2024-02-05T09:53:43.306Z,8.55
2024-02-05T09:58:46.729Z,10.35
2024-02-05T10:03:50.706Z,8.85
2024-02-05T10:09:02.922Z,9.15
2024-02-05T10:14:06.532Z,11.73
2024-02-05T10:19:09.298Z,8.98
2024-02-05T10:24:16.719Z,9.85
2024-02-05T10:29:23.177Z,9.70
2024-02-05T10:34:26.816Z,10.57
2024-02-05T10:39:29.733Z,7.90
2024-02-05T10:44:38.247Z,6.72
2024-02-05T10:49:45.412Z,10.40
2024-02-05T10:54:49.895Z,10.75
2024-02-05T10:59:52.915Z,7.68
2024-02-05T11:04:57.858Z,6.63
2024-02-05T11:10:05.751Z,7.82
2024-02-05T11:15:11.794Z,5.38
2024-02-05T11:20:15.313Z,5.75
2024-02-05T11:25:19.147Z,6.45
2024-02-05T11:30:21.908Z,9.05
2024-02-05T11:35:30.670Z,6.75
2024-02-05T11:40:34.552Z,7.32
2024-02-05T11:45:37.987Z,6.82
2024-02-05T11:50:42.234Z,8.23
2024-02-05T11:55:45.650Z,7.88
2024-02-05T12:00:48.517Z,12.70
2024-02-05T12:05:51.598Z,7.95
2024-02-05T12:10:54.679Z,6.05
2024-02-05T12:15:57.560Z,6.88
2024-02-05T12:21:00.836Z,7.38
2024-02-05T12:26:04.233Z,9.30
2024-02-05T12:31:07.206Z,9.30
2024-02-05T12:36:11.397Z,9.30
2024-02-05T12:41:14.514Z,9.13
2024-02-05T12:46:18.211Z,7.35
2024-02-05T12:51:22.690Z,8.48
2024-02-05T12:56:25.624Z,11.65
2024-02-05T13:01:28.732Z,7.22
2024-02-05T13:06:31.756Z,11.32
2024-02-05T13:11:35.222Z,3.67
2024-02-05T13:16:37.949Z,6.28
2024-02-05T13:21:40.721Z,8.77
2024-02-05T13:26:49.069Z,5.65
2024-02-05T13:31:52.698Z,5.30
2024-02-05T13:36:56.345Z,5.35
2024-02-05T13:42:03.818Z,7.18
2024-02-05T13:47:07.247Z,5.45
2024-02-05T13:52:10.309Z,4.03
2024-02-05T13:57:13.499Z,8.43
2024-02-05T14:02:16.867Z,7.20
2024-02-05T14:07:21.032Z,10.57
2024-02-05T14:12:24.204Z,7.22
2024-02-05T14:17:27.375Z,8.40
2024-02-05T14:22:30.795Z,6.53
2024-02-05T14:27:33.769Z,7.68
2024-02-05T14:32:39.058Z,7.63
2024-02-05T14:37:41.683Z,8.10
2024-02-05T14:42:44.405Z,6.40
2024-02-05T14:47:47.368Z,7.93
2024-02-05T14:52:50.062Z,10.73
2024-02-05T14:57:55.479Z,9.27
2024-02-05T15:02:59.655Z,18.42
2024-02-05T15:08:02.508Z,9.73
2024-02-05T15:13:05.535Z,14.45
2024-02-05T15:18:11.916Z,15.30
2024-02-05T15:23:14.929Z,13.98
2024-02-05T15:28:17.806Z,13.65
2024-02-05T15:33:20.765Z,12.57
2024-02-05T15:38:23.677Z,11.18
2024-02-05T15:43:27.387Z,10.02
2024-02-05T15:48:30.344Z,8.10
2024-02-05T15:53:33.156Z,8.77
2024-02-05T15:58:36.261Z,11.25
2024-02-05T16:03:41.521Z,10.35
2024-02-05T16:08:44.399Z,10.15
2024-02-05T16:13:47.808Z,10.38
2024-02-05T16:18:54.566Z,8.98
2024-02-05T16:24:02.677Z,8.90
2024-02-05T16:29:05.679Z,11.15
2024-02-05T16:34:08.926Z,8.82
2024-02-05T16:39:12.077Z,11.15
2024-02-05T16:44:15.550Z,9.75
2024-02-05T16:54:23.292Z,8.73
2024-02-05T16:59:26.248Z,11.73
2024-02-05T17:04:29.288Z,7.45
2024-02-05T17:09:32.442Z,9.27
2024-02-05T17:14:35.441Z,7.72
2024-02-05T17:19:39.930Z,7.22
2024-02-05T17:24:46.189Z,10.90
2024-02-05T17:29:49.074Z,5.95
2024-02-05T17:34:52.291Z,10.07
2024-02-05T17:39:55.239Z,8.10
2024-02-05T17:44:58.259Z,8.25
2024-02-05T17:50:01.412Z,7.82
2024-02-05T17:55:05.080Z,7.13
2024-02-05T18:00:08.573Z,9.55
2024-02-05T18:05:12.110Z,6.32
2024-02-05T18:10:15.392Z,8.77
2024-02-05T18:15:18.267Z,9.20
2024-02-05T18:20:21.730Z,10.00
2024-02-05T18:25:24.964Z,10.52
2024-02-05T18:30:30.486Z,6.65
2024-02-05T18:35:33.465Z,9.35
2024-02-05T18:40:36.450Z,7.13
2024-02-05T18:45:39.909Z,7.45
2024-02-05T18:50:43.004Z,7.85
2024-02-05T18:55:47.459Z,7.75
2024-02-05T19:00:50.723Z,8.70
2024-02-05T19:05:53.726Z,7.38
2024-02-05T19:10:57.069Z,7.53
2024-02-05T19:16:00.235Z,6.55
2024-02-05T19:21:03.330Z,6.20
2024-02-05T19:26:06.351Z,6.93
2024-02-05T19:31:10.042Z,7.55
2024-02-05T19:36:13.602Z,10.80
2024-02-05T19:41:18.039Z,8.75
2024-02-05T19:46:20.986Z,6.32
2024-02-05T19:51:24.780Z,9.73
2024-02-05T19:56:28.738Z,10.15
2024-02-05T20:01:31.846Z,9.52
2024-02-05T20:06:35.617Z,7.05
2024-02-05T20:11:38.604Z,7.13
2024-02-05T20:16:41.652Z,7.90
2024-02-05T20:21:44.597Z,6.97
2024-02-05T20:26:47.740Z,8.30
2024-02-05T20:31:50.688Z,7.78
2024-02-05T20:36:53.955Z,5.30
2024-02-05T20:41:56.847Z,5.97
2024-02-05T20:46:59.713Z,6.65
2024-02-05T20:52:03.851Z,5.25
2024-02-05T20:57:06.926Z,5.82
2024-02-05T21:02:10.745Z,6.22
2024-02-05T21:07:14.050Z,5.82
2024-02-05T21:12:16.964Z,7.03
2024-02-05T21:17:19.884Z,4.43
2024-02-05T21:22:22.858Z,3.60
2024-02-05T21:27:25.870Z,4.22
2024-02-05T21:32:28.959Z,4.50
2024-02-05T21:37:32.079Z,6.95
2024-02-05T21:42:35.244Z,3.47
2024-02-05T21:47:38.197Z,4.97
2024-02-05T21:52:41.343Z,4.10
2024-02-05T21:57:45.952Z,4.82
2024-02-05T22:02:48.958Z,6.45
2024-02-05T22:07:51.952Z,6.65
2024-02-05T22:12:55.128Z,6.90
2024-02-05T22:17:58.198Z,6.97
2024-02-05T22:23:01.064Z,6.22
2024-02-05T22:28:04.267Z,6.30
2024-02-05T22:33:07.418Z,4.93
2024-02-05T22:38:10.372Z,5.40
2024-02-05T22:43:15.946Z,6.53
2024-02-05T22:48:20.638Z,7.03
2024-02-05T22:53:23.522Z,4.88
2024-02-05T22:58:26.701Z,2.05
2024-02-05T23:03:29.794Z,2.75
2024-02-05T23:08:32.758Z,2.58
2024-02-05T23:13:35.763Z,2.22
2024-02-05T23:18:38.691Z,2.97
2024-02-05T23:23:41.622Z,2.00
2024-02-05T23:28:44.370Z,3.15
2024-02-05T23:33:48.451Z,2.72
2024-02-05T23:38:51.237Z,1.75
2024-02-05T23:43:54.157Z,4.32
2024-02-05T23:48:59.878Z,4.32
2024-02-05T23:54:04.361Z,5.43
2024-02-05T23:59:07.396Z,3.45
